sensor_id;sensor_type;location;lat;lon;timestamp;temperature;humidity
17473;DHT22;8853;52.552;13.356;2022-07-29T00:00:50;31.10;26.80
17473;DHT22;8853;52.552;13.356;2022-07-29T00:03:19;31.10;26.80
17473;DHT22;8853;52.552;13.356;2022-07-29T00:05:47;31.10;26.80
17473;DHT22;8853;52.552;13.356;2022-07-29T00:08:16;31.10;26.80
17473;DHT22;8853;52.552;13.356;2022-07-29T00:10:45;31.10;26.90
17473;DHT22;8853;52.552;13.356;2022-07-29T00:13:14;31.10;26.80
17473;DHT22;8853;52.552;13.356;2022-07-29T00:15:43;31.10;26.80
17473;DHT22;8853;52.552;13.356;2022-07-29T00:18:11;31.10;26.80
17473;DHT22;8853;52.552;13.356;2022-07-29T00:20:40;31.10;26.70
17473;DHT22;8853;52.552;13.356;2022-07-29T00:23:08;31.10;26.80
17473;DHT22;8853;52.552;13.356;2022-07-29T00:25:38;31.10;26.90
17473;DHT22;8853;52.552;13.356;2022-07-29T00:28:06;31.10;26.80
17473;DHT22;8853;52.552;13.356;2022-07-29T00:30:35;31.00;26.80
17473;DHT22;8853;52.552;13.356;2022-07-29T00:33:04;31.10;26.80
17473;DHT22;8853;52.552;13.356;2022-07-29T00:35:33;31.10;26.80
17473;DHT22;8853;52.552;13.356;2022-07-29T00:38:11;31.00;27.50
17473;DHT22;8853;52.552;13.356;2022-07-29T00:40:39;31.00;26.80
17473;DHT22;8853;52.552;13.356;2022-07-29T00:43:10;31.00;26.90
17473;DHT22;8853;52.552;13.356;2022-07-29T00:45:39;31.00;26.90
17473;DHT22;8853;52.552;13.356;2022-07-29T00:48:08;31.00;26.90
17473;DHT22;8853;52.552;13.356;2022-07-29T00:50:37;31.10;27.50
17473;DHT22;8853;52.552;13.356;2022-07-29T00:53:06;31.00;26.90
17473;DHT22;8853;52.552;13.356;2022-07-29T00:55:35;31.10;26.90
17473;DHT22;8853;52.552;13.356;2022-07-29T00:58:03;31.10;26.80
17473;DHT22;8853;52.552;13.356;2022-07-29T01:00:32;31.00;26.80
17473;DHT22;8853;52.552;13.356;2022-07-29T01:03:00;31.00;26.80
17473;DHT22;8853;52.552;13.356;2022-07-29T01:05:29;31.00;26.80
17473;DHT22;8853;52.552;13.356;2022-07-29T01:12:43;31.00;26.80
17473;DHT22;8853;52.552;13.356;2022-07-29T01:15:11;30.80;27.00
17473;DHT22;8853;52.552;13.356;2022-07-29T01:18:03;30.70;27.00
17473;DHT22;8853;52.552;13.356;2022-07-29T01:21:16;30.80;27.00
17473;DHT22;8853;52.552;13.356;2022-07-29T01:27:26;30.80;27.00
17473;DHT22;8853;52.552;13.356;2022-07-29T01:29:57;30.70;27.10
17473;DHT22;8853;52.552;13.356;2022-07-29T01:32:29;30.70;27.10
17473;DHT22;8853;52.552;13.356;2022-07-29T01:37:49;30.80;26.90
17473;DHT22;8853;52.552;13.356;2022-07-29T01:40:40;30.80;26.80
17473;DHT22;8853;52.552;13.356;2022-07-29T01:43:10;30.80;26.80
17473;DHT22;8853;52.552;13.356;2022-07-29T01:45:40;30.90;26.80
17473;DHT22;8853;52.552;13.356;2022-07-29T01:48:18;30.80;26.70
17473;DHT22;8853;52.552;13.356;2022-07-29T01:51:07;30.90;26.70
17473;DHT22;8853;52.552;13.356;2022-07-29T01:53:59;30.90;26.60
17473;DHT22;8853;52.552;13.356;2022-07-29T01:56:19;30.80;26.80
17473;DHT22;8853;52.552;13.356;2022-07-29T01:58:48;30.90;26.70
17473;DHT22;8853;52.552;13.356;2022-07-29T02:01:17;30.80;26.70
17473;DHT22;8853;52.552;13.356;2022-07-29T02:03:45;30.90;26.60
17473;DHT22;8853;52.552;13.356;2022-07-29T02:06:15;30.90;26.60
17473;DHT22;8853;52.552;13.356;2022-07-29T02:08:42;30.90;26.50
17473;DHT22;8853;52.552;13.356;2022-07-29T02:11:11;30.90;26.50
17473;DHT22;8853;52.552;13.356;2022-07-29T02:13:41;31.00;27.00
17473;DHT22;8853;52.552;13.356;2022-07-29T02:16:09;31.00;26.90
17473;DHT22;8853;52.552;13.356;2022-07-29T02:18:39;31.00;26.90
17473;DHT22;8853;52.552;13.356;2022-07-29T02:21:07;31.00;26.90
17473;DHT22;8853;52.552;13.356;2022-07-29T02:23:35;31.00;26.90
17473;DHT22;8853;52.552;13.356;2022-07-29T02:26:04;31.00;26.90
17473;DHT22;8853;52.552;13.356;2022-07-29T02:28:32;31.00;26.90
17473;DHT22;8853;52.552;13.356;2022-07-29T02:31:01;31.00;26.90
17473;DHT22;8853;52.552;13.356;2022-07-29T02:33:30;30.90;26.40
17473;DHT22;8853;52.552;13.356;2022-07-29T02:35:59;31.00;26.90
17473;DHT22;8853;52.552;13.356;2022-07-29T02:38:28;31.00;26.90
17473;DHT22;8853;52.552;13.356;2022-07-29T02:41:16;31.00;26.90
17473;DHT22;8853;52.552;13.356;2022-07-29T02:43:44;31.00;26.90
17473;DHT22;8853;52.552;13.356;2022-07-29T02:46:13;30.90;26.50
17473;DHT22;8853;52.552;13.356;2022-07-29T02:48:41;30.90;26.50
17473;DHT22;8853;52.552;13.356;2022-07-29T02:51:16;30.90;26.50
17473;DHT22;8853;52.552;13.356;2022-07-29T02:53:41;30.90;27.10
17473;DHT22;8853;52.552;13.356;2022-07-29T03:00:07;31.00;27.00
17473;DHT22;8853;52.552;13.356;2022-07-29T03:02:39;30.80;26.70
17473;DHT22;8853;52.552;13.356;2022-07-29T03:05:07;30.80;26.70
17473;DHT22;8853;52.552;13.356;2022-07-29T03:07:35;30.90;26.60
17473;DHT22;8853;52.552;13.356;2022-07-29T03:10:06;30.90;26.50
17473;DHT22;8853;52.552;13.356;2022-07-29T03:12:35;30.90;26.50
17473;DHT22;8853;52.552;13.356;2022-07-29T03:15:04;30.90;26.40
17473;DHT22;8853;52.552;13.356;2022-07-29T03:17:32;30.90;26.40
17473;DHT22;8853;52.552;13.356;2022-07-29T03:20:01;30.90;26.40
17473;DHT22;8853;52.552;13.356;2022-07-29T03:22:30;30.90;26.40
17473;DHT22;8853;52.552;13.356;2022-07-29T03:25:06;30.90;26.40
17473;DHT22;8853;52.552;13.356;2022-07-29T03:27:29;30.90;26.40
17473;DHT22;8853;52.552;13.356;2022-07-29T03:29:57;30.90;26.40
17473;DHT22;8853;52.552;13.356;2022-07-29T03:32:26;30.90;26.40
17473;DHT22;8853;52.552;13.356;2022-07-29T03:34:54;30.90;26.40
17473;DHT22;8853;52.552;13.356;2022-07-29T03:37:23;30.90;26.40
17473;DHT22;8853;52.552;13.356;2022-07-29T03:39:53;30.90;26.40
17473;DHT22;8853;52.552;13.356;2022-07-29T03:42:22;30.90;26.40
17473;DHT22;8853;52.552;13.356;2022-07-29T03:44:50;30.90;26.40
17473;DHT22;8853;52.552;13.356;2022-07-29T03:47:20;30.90;26.40
17473;DHT22;8853;52.552;13.356;2022-07-29T03:49:47;30.90;26.40
17473;DHT22;8853;52.552;13.356;2022-07-29T03:52:16;31.00;26.90
17473;DHT22;8853;52.552;13.356;2022-07-29T03:54:45;30.90;26.60
17473;DHT22;8853;52.552;13.356;2022-07-29T03:57:13;30.90;26.40
17473;DHT22;8853;52.552;13.356;2022-07-29T03:59:42;31.00;26.90
17473;DHT22;8853;52.552;13.356;2022-07-29T04:02:11;30.90;26.40
17473;DHT22;8853;52.552;13.356;2022-07-29T04:04:39;30.90;26.40
17473;DHT22;8853;52.552;13.356;2022-07-29T04:07:11;30.90;26.40
17473;DHT22;8853;52.552;13.356;2022-07-29T04:09:36;30.90;26.40
17473;DHT22;8853;52.552;13.356;2022-07-29T04:12:05;30.90;26.40
17473;DHT22;8853;52.552;13.356;2022-07-29T04:14:34;30.90;26.40
17473;DHT22;8853;52.552;13.356;2022-07-29T04:17:03;30.90;26.40
17473;DHT22;8853;52.552;13.356;2022-07-29T04:19:31;30.90;26.40
17473;DHT22;8853;52.552;13.356;2022-07-29T04:22:00;30.90;26.40
17473;DHT22;8853;52.552;13.356;2022-07-29T04:24:28;30.80;26.40
17473;DHT22;8853;52.552;13.356;2022-07-29T04:26:57;30.90;26.40
17473;DHT22;8853;52.552;13.356;2022-07-29T04:29:26;30.90;26.40
17473;DHT22;8853;52.552;13.356;2022-07-29T04:31:54;30.90;26.40
17473;DHT22;8853;52.552;13.356;2022-07-29T04:34:23;30.90;26.50
17473;DHT22;8853;52.552;13.356;2022-07-29T04:36:51;30.90;26.40
17473;DHT22;8853;52.552;13.356;2022-07-29T04:39:20;30.90;26.40
17473;DHT22;8853;52.552;13.356;2022-07-29T04:41:49;30.90;26.40
17473;DHT22;8853;52.552;13.356;2022-07-29T04:44:17;30.90;26.40
17473;DHT22;8853;52.552;13.356;2022-07-29T04:46:46;30.90;26.40
17473;DHT22;8853;52.552;13.356;2022-07-29T04:49:15;30.80;26.40
17473;DHT22;8853;52.552;13.356;2022-07-29T04:51:43;30.90;26.40
17473;DHT22;8853;52.552;13.356;2022-07-29T04:54:12;30.90;26.40
17473;DHT22;8853;52.552;13.356;2022-07-29T04:56:41;30.90;26.40
17473;DHT22;8853;52.552;13.356;2022-07-29T04:59:09;30.90;26.40
17473;DHT22;8853;52.552;13.356;2022-07-29T05:01:38;30.90;26.40
17473;DHT22;8853;52.552;13.356;2022-07-29T05:04:07;30.90;26.40
17473;DHT22;8853;52.552;13.356;2022-07-29T05:06:35;30.90;26.40
17473;DHT22;8853;52.552;13.356;2022-07-29T05:09:04;30.80;26.40
17473;DHT22;8853;52.552;13.356;2022-07-29T05:11:33;30.90;26.50
17473;DHT22;8853;52.552;13.356;2022-07-29T05:14:02;30.80;26.40
17473;DHT22;8853;52.552;13.356;2022-07-29T05:16:30;30.90;26.40
17473;DHT22;8853;52.552;13.356;2022-07-29T05:18:59;30.90;26.40
17473;DHT22;8853;52.552;13.356;2022-07-29T05:21:28;30.90;26.50
17473;DHT22;8853;52.552;13.356;2022-07-29T05:23:56;30.90;26.40
17473;DHT22;8853;52.552;13.356;2022-07-29T05:26:25;30.90;26.40
17473;DHT22;8853;52.552;13.356;2022-07-29T05:28:54;30.90;26.40
17473;DHT22;8853;52.552;13.356;2022-07-29T05:31:22;30.90;26.40
17473;DHT22;8853;52.552;13.356;2022-07-29T05:33:51;30.90;26.90
17473;DHT22;8853;52.552;13.356;2022-07-29T05:36:19;30.90;25.80
17473;DHT22;8853;52.552;13.356;2022-07-29T05:38:48;30.90;26.40
17473;DHT22;8853;52.552;13.356;2022-07-29T05:41:17;30.90;26.40
17473;DHT22;8853;52.552;13.356;2022-07-29T05:43:45;30.90;26.30
17473;DHT22;8853;52.552;13.356;2022-07-29T05:46:14;30.90;26.30
17473;DHT22;8853;52.552;13.356;2022-07-29T05:48:43;30.90;26.40
17473;DHT22;8853;52.552;13.356;2022-07-29T05:51:12;30.90;26.40
17473;DHT22;8853;52.552;13.356;2022-07-29T05:53:40;30.80;26.40
17473;DHT22;8853;52.552;13.356;2022-07-29T05:56:09;30.80;26.40
17473;DHT22;8853;52.552;13.356;2022-07-29T05:58:38;30.90;26.40
17473;DHT22;8853;52.552;13.356;2022-07-29T06:01:26;30.90;26.30
17473;DHT22;8853;52.552;13.356;2022-07-29T06:03:55;30.90;26.50
17473;DHT22;8853;52.552;13.356;2022-07-29T06:06:24;30.90;26.40
17473;DHT22;8853;52.552;13.356;2022-07-29T06:08:53;30.90;26.40
17473;DHT22;8853;52.552;13.356;2022-07-29T06:11:21;31.00;26.90
17473;DHT22;8853;52.552;13.356;2022-07-29T06:13:51;30.90;26.40
17473;DHT22;8853;52.552;13.356;2022-07-29T06:16:19;30.90;26.40
17473;DHT22;8853;52.552;13.356;2022-07-29T06:18:48;30.90;26.30
17473;DHT22;8853;52.552;13.356;2022-07-29T06:21:17;30.90;26.40
17473;DHT22;8853;52.552;13.356;2022-07-29T06:23:45;30.90;26.30
17473;DHT22;8853;52.552;13.356;2022-07-29T06:26:14;30.90;26.30
17473;DHT22;8853;52.552;13.356;2022-07-29T06:28:42;30.90;26.30
17473;DHT22;8853;52.552;13.356;2022-07-29T06:31:11;30.90;26.30
17473;DHT22;8853;52.552;13.356;2022-07-29T06:33:40;30.90;26.30
17473;DHT22;8853;52.552;13.356;2022-07-29T06:36:08;30.90;26.30
17473;DHT22;8853;52.552;13.356;2022-07-29T06:38:37;30.90;26.30
17473;DHT22;8853;52.552;13.356;2022-07-29T06:41:06;30.90;26.30
17473;DHT22;8853;52.552;13.356;2022-07-29T06:43:36;30.90;26.30
17473;DHT22;8853;52.552;13.356;2022-07-29T06:46:04;30.90;26.30
17473;DHT22;8853;52.552;13.356;2022-07-29T06:48:33;30.90;26.30
17473;DHT22;8853;52.552;13.356;2022-07-29T06:51:01;30.90;26.30
17473;DHT22;8853;52.552;13.356;2022-07-29T06:53:30;30.90;26.30
17473;DHT22;8853;52.552;13.356;2022-07-29T06:55:59;30.90;26.30
17473;DHT22;8853;52.552;13.356;2022-07-29T06:58:28;30.90;26.30
17473;DHT22;8853;52.552;13.356;2022-07-29T07:01:00;30.90;26.30
17473;DHT22;8853;52.552;13.356;2022-07-29T07:03:25;30.90;26.30
17473;DHT22;8853;52.552;13.356;2022-07-29T07:05:53;30.90;26.30
17473;DHT22;8853;52.552;13.356;2022-07-29T07:08:22;30.90;26.30
17473;DHT22;8853;52.552;13.356;2022-07-29T07:10:51;30.90;26.30
17473;DHT22;8853;52.552;13.356;2022-07-29T07:13:19;30.90;26.30
17473;DHT22;8853;52.552;13.356;2022-07-29T07:15:48;30.90;26.30
17473;DHT22;8853;52.552;13.356;2022-07-29T07:18:17;30.90;26.30
17473;DHT22;8853;52.552;13.356;2022-07-29T07:20:45;30.90;26.30
17473;DHT22;8853;52.552;13.356;2022-07-29T07:23:15;30.90;26.30
17473;DHT22;8853;52.552;13.356;2022-07-29T07:25:43;30.90;26.30
17473;DHT22;8853;52.552;13.356;2022-07-29T07:28:12;30.90;26.30
17473;DHT22;8853;52.552;13.356;2022-07-29T07:30:40;30.90;26.30
17473;DHT22;8853;52.552;13.356;2022-07-29T07:33:09;30.90;26.30
17473;DHT22;8853;52.552;13.356;2022-07-29T07:35:38;30.90;26.30
17473;DHT22;8853;52.552;13.356;2022-07-29T07:38:06;30.90;26.30
17473;DHT22;8853;52.552;13.356;2022-07-29T07:40:35;30.90;26.30
17473;DHT22;8853;52.552;13.356;2022-07-29T07:43:03;30.90;26.30
17473;DHT22;8853;52.552;13.356;2022-07-29T07:45:32;30.90;26.70
17473;DHT22;8853;52.552;13.356;2022-07-29T07:48:01;30.90;26.30
17473;DHT22;8853;52.552;13.356;2022-07-29T07:50:29;30.90;26.30
17473;DHT22;8853;52.552;13.356;2022-07-29T07:52:58;30.90;26.30
17473;DHT22;8853;52.552;13.356;2022-07-29T07:55:27;30.90;26.30
17473;DHT22;8853;52.552;13.356;2022-07-29T07:57:55;30.90;26.30
17473;DHT22;8853;52.552;13.356;2022-07-29T08:00:24;30.90;26.40
17473;DHT22;8853;52.552;13.356;2022-07-29T08:02:53;30.90;26.30
17473;DHT22;8853;52.552;13.356;2022-07-29T08:05:21;30.90;26.30
17473;DHT22;8853;52.552;13.356;2022-07-29T08:07:50;31.00;26.80
17473;DHT22;8853;52.552;13.356;2022-07-29T08:10:18;30.90;26.30
17473;DHT22;8853;52.552;13.356;2022-07-29T08:13:07;30.90;26.40
17473;DHT22;8853;52.552;13.356;2022-07-29T08:15:35;30.90;27.00
17473;DHT22;8853;52.552;13.356;2022-07-29T08:18:04;30.90;26.40
17473;DHT22;8853;52.552;13.356;2022-07-29T08:20:32;30.90;26.40
17473;DHT22;8853;52.552;13.356;2022-07-29T08:23:02;30.90;26.40
17473;DHT22;8853;52.552;13.356;2022-07-29T08:25:30;30.90;26.40
17473;DHT22;8853;52.552;13.356;2022-07-29T08:27:58;30.90;26.30
17473;DHT22;8853;52.552;13.356;2022-07-29T08:30:27;30.90;26.40
17473;DHT22;8853;52.552;13.356;2022-07-29T08:32:56;30.90;26.30
17473;DHT22;8853;52.552;13.356;2022-07-29T08:35:24;30.90;26.30
17473;DHT22;8853;52.552;13.356;2022-07-29T08:37:53;30.90;26.30
17473;DHT22;8853;52.552;13.356;2022-07-29T08:40:22;30.90;26.30
17473;DHT22;8853;52.552;13.356;2022-07-29T08:42:50;30.90;26.30
17473;DHT22;8853;52.552;13.356;2022-07-29T08:45:19;30.90;26.30
17473;DHT22;8853;52.552;13.356;2022-07-29T08:47:48;31.00;26.90
17473;DHT22;8853;52.552;13.356;2022-07-29T08:50:17;30.90;26.30
17473;DHT22;8853;52.552;13.356;2022-07-29T08:52:46;30.90;26.30
17473;DHT22;8853;52.552;13.356;2022-07-29T08:55:14;30.90;26.30
17473;DHT22;8853;52.552;13.356;2022-07-29T08:57:43;30.90;26.40
17473;DHT22;8853;52.552;13.356;2022-07-29T09:00:12;30.90;26.30
17473;DHT22;8853;52.552;13.356;2022-07-29T09:02:42;30.90;26.30
17473;DHT22;8853;52.552;13.356;2022-07-29T09:05:10;30.90;26.40
17473;DHT22;8853;52.552;13.356;2022-07-29T09:07:39;30.90;26.40
17473;DHT22;8853;52.552;13.356;2022-07-29T09:10:08;30.90;26.40
17473;DHT22;8853;52.552;13.356;2022-07-29T09:12:36;30.90;26.40
17473;DHT22;8853;52.552;13.356;2022-07-29T09:15:06;30.90;26.40
17473;DHT22;8853;52.552;13.356;2022-07-29T09:17:44;30.90;26.40
17473;DHT22;8853;52.552;13.356;2022-07-29T09:20:17;30.90;26.40
17473;DHT22;8853;52.552;13.356;2022-07-29T09:22:44;30.90;26.40
17473;DHT22;8853;52.552;13.356;2022-07-29T09:25:37;30.90;26.40
17473;DHT22;8853;52.552;13.356;2022-07-29T09:28:09;30.80;26.50
17473;DHT22;8853;52.552;13.356;2022-07-29T09:30:56;30.80;26.50
17473;DHT22;8853;52.552;13.356;2022-07-29T09:33:24;30.80;26.50
17473;DHT22;8853;52.552;13.356;2022-07-29T09:35:59;30.80;26.60
17473;DHT22;8853;52.552;13.356;2022-07-29T09:38:27;30.80;26.60
17473;DHT22;8853;52.552;13.356;2022-07-29T09:40:56;30.80;26.60
17473;DHT22;8853;52.552;13.356;2022-07-29T09:43:24;30.80;26.50
17473;DHT22;8853;52.552;13.356;2022-07-29T09:45:53;30.90;26.50
17473;DHT22;8853;52.552;13.356;2022-07-29T09:48:23;30.90;26.50
17473;DHT22;8853;52.552;13.356;2022-07-29T09:50:50;30.90;26.40
17473;DHT22;8853;52.552;13.356;2022-07-29T09:53:32;30.90;26.40
17473;DHT22;8853;52.552;13.356;2022-07-29T09:56:00;30.90;26.40
17473;DHT22;8853;52.552;13.356;2022-07-29T09:58:28;30.90;26.50
17473;DHT22;8853;52.552;13.356;2022-07-29T10:00:57;30.80;26.50
17473;DHT22;8853;52.552;13.356;2022-07-29T10:03:26;30.90;26.40
17473;DHT22;8853;52.552;13.356;2022-07-29T10:06:10;31.00;26.90
17473;DHT22;8853;52.552;13.356;2022-07-29T10:08:38;30.90;27.00
17473;DHT22;8853;52.552;13.356;2022-07-29T10:11:13;30.90;26.40
17473;DHT22;8853;52.552;13.356;2022-07-29T10:13:42;30.90;26.50
17473;DHT22;8853;52.552;13.356;2022-07-29T10:16:10;30.90;26.40
17473;DHT22;8853;52.552;13.356;2022-07-29T10:18:39;30.90;26.40
17473;DHT22;8853;52.552;13.356;2022-07-29T10:21:07;30.90;26.40
17473;DHT22;8853;52.552;13.356;2022-07-29T10:23:36;30.90;26.40
17473;DHT22;8853;52.552;13.356;2022-07-29T10:26:05;30.90;26.40
17473;DHT22;8853;52.552;13.356;2022-07-29T10:28:34;30.90;26.40
17473;DHT22;8853;52.552;13.356;2022-07-29T10:31:04;30.90;26.40
17473;DHT22;8853;52.552;13.356;2022-07-29T10:39:36;30.90;26.40
17473;DHT22;8853;52.552;13.356;2022-07-29T10:44:47;30.90;26.60
17473;DHT22;8853;52.552;13.356;2022-07-29T10:47:22;30.80;26.70
17473;DHT22;8853;52.552;13.356;2022-07-29T10:50:00;30.80;26.60
17473;DHT22;8853;52.552;13.356;2022-07-29T10:55:36;30.90;26.50
17473;DHT22;8853;52.552;13.356;2022-07-29T10:58:19;30.80;26.60
17473;DHT22;8853;52.552;13.356;2022-07-29T11:00:51;30.80;26.60
17473;DHT22;8853;52.552;13.356;2022-07-29T11:03:45;30.80;26.70
17473;DHT22;8853;52.552;13.356;2022-07-29T11:06:13;30.80;26.60
17473;DHT22;8853;52.552;13.356;2022-07-29T11:08:41;30.80;26.60
17473;DHT22;8853;52.552;13.356;2022-07-29T11:13:51;30.90;26.50
17473;DHT22;8853;52.552;13.356;2022-07-29T11:16:20;30.90;26.50
17473;DHT22;8853;52.552;13.356;2022-07-29T11:21:40;30.90;26.40
17473;DHT22;8853;52.552;13.356;2022-07-29T11:24:14;30.90;26.40
17473;DHT22;8853;52.552;13.356;2022-07-29T11:26:42;31.00;26.90
17473;DHT22;8853;52.552;13.356;2022-07-29T11:29:20;30.90;26.40
17473;DHT22;8853;52.552;13.356;2022-07-29T11:31:52;31.00;26.90
17473;DHT22;8853;52.552;13.356;2022-07-29T11:34:30;31.00;26.90
17473;DHT22;8853;52.552;13.356;2022-07-29T11:39:39;31.00;26.70
17473;DHT22;8853;52.552;13.356;2022-07-29T11:47:26;31.00;26.90
17473;DHT22;8853;52.552;13.356;2022-07-29T11:49:55;30.90;26.40
17473;DHT22;8853;52.552;13.356;2022-07-29T11:52:23;30.90;26.40
17473;DHT22;8853;52.552;13.356;2022-07-29T11:54:53;31.00;26.80
17473;DHT22;8853;52.552;13.356;2022-07-29T11:57:21;31.00;26.80
17473;DHT22;8853;52.552;13.356;2022-07-29T11:59:50;31.00;26.70
17473;DHT22;8853;52.552;13.356;2022-07-29T12:02:19;31.00;26.70
17473;DHT22;8853;52.552;13.356;2022-07-29T12:04:48;31.10;26.70
17473;DHT22;8853;52.552;13.356;2022-07-29T12:07:16;31.00;26.70
17473;DHT22;8853;52.552;13.356;2022-07-29T12:09:51;31.00;26.70
17473;DHT22;8853;52.552;13.356;2022-07-29T12:12:20;31.00;26.70
17473;DHT22;8853;52.552;13.356;2022-07-29T12:14:48;31.00;26.70
17473;DHT22;8853;52.552;13.356;2022-07-29T12:17:33;31.00;26.70
17473;DHT22;8853;52.552;13.356;2022-07-29T12:20:02;31.00;26.70
17473;DHT22;8853;52.552;13.356;2022-07-29T12:22:30;31.00;26.70
17473;DHT22;8853;52.552;13.356;2022-07-29T12:25:02;31.00;26.70
17473;DHT22;8853;52.552;13.356;2022-07-29T12:27:29;31.00;26.70
17473;DHT22;8853;52.552;13.356;2022-07-29T12:30:05;31.00;26.70
17473;DHT22;8853;52.552;13.356;2022-07-29T12:32:34;31.00;26.70
17473;DHT22;8853;52.552;13.356;2022-07-29T12:35:03;31.00;26.70
17473;DHT22;8853;52.552;13.356;2022-07-29T12:37:31;31.00;26.70
17473;DHT22;8853;52.552;13.356;2022-07-29T12:39:59;31.00;26.70
17473;DHT22;8853;52.552;13.356;2022-07-29T12:42:27;31.00;26.70
17473;DHT22;8853;52.552;13.356;2022-07-29T12:44:56;31.00;26.70
17473;DHT22;8853;52.552;13.356;2022-07-29T12:47:25;31.00;26.70
17473;DHT22;8853;52.552;13.356;2022-07-29T12:50:09;31.00;26.70
17473;DHT22;8853;52.552;13.356;2022-07-29T12:52:37;31.00;26.60
17473;DHT22;8853;52.552;13.356;2022-07-29T12:55:06;31.00;26.70
17473;DHT22;8853;52.552;13.356;2022-07-29T12:57:47;31.10;26.70
17473;DHT22;8853;52.552;13.356;2022-07-29T13:00:16;31.00;26.70
17473;DHT22;8853;52.552;13.356;2022-07-29T13:02:46;31.00;27.30
17473;DHT22;8853;52.552;13.356;2022-07-29T13:05:13;31.00;26.80
17473;DHT22;8853;52.552;13.356;2022-07-29T13:07:42;31.00;26.70
17473;DHT22;8853;52.552;13.356;2022-07-29T13:10:17;31.00;26.70
17473;DHT22;8853;52.552;13.356;2022-07-29T13:13:08;31.00;26.70
17473;DHT22;8853;52.552;13.356;2022-07-29T13:15:39;31.00;26.70
17473;DHT22;8853;52.552;13.356;2022-07-29T13:20:58;31.00;27.10
17473;DHT22;8853;52.552;13.356;2022-07-29T13:23:26;31.00;26.80
17473;DHT22;8853;52.552;13.356;2022-07-29T13:25:55;31.00;26.90
17473;DHT22;8853;52.552;13.356;2022-07-29T13:28:23;30.90;26.30
17473;DHT22;8853;52.552;13.356;2022-07-29T13:30:52;31.00;26.80
17473;DHT22;8853;52.552;13.356;2022-07-29T13:33:20;31.00;26.70
17473;DHT22;8853;52.552;13.356;2022-07-29T13:35:49;31.00;26.70
17473;DHT22;8853;52.552;13.356;2022-07-29T13:38:18;31.00;26.70
17473;DHT22;8853;52.552;13.356;2022-07-29T13:40:46;31.10;26.70
17473;DHT22;8853;52.552;13.356;2022-07-29T13:43:15;31.00;26.70
17473;DHT22;8853;52.552;13.356;2022-07-29T13:45:44;31.20;26.70
17473;DHT22;8853;52.552;13.356;2022-07-29T13:48:12;31.00;26.60
17473;DHT22;8853;52.552;13.356;2022-07-29T13:50:41;31.10;26.60
17473;DHT22;8853;52.552;13.356;2022-07-29T13:53:10;31.10;26.60
17473;DHT22;8853;52.552;13.356;2022-07-29T13:55:39;31.10;26.60
17473;DHT22;8853;52.552;13.356;2022-07-29T13:58:07;31.10;26.60
17473;DHT22;8853;52.552;13.356;2022-07-29T14:00:36;31.10;26.60
17473;DHT22;8853;52.552;13.356;2022-07-29T14:03:05;31.20;26.60
17473;DHT22;8853;52.552;13.356;2022-07-29T14:05:33;31.10;26.60
17473;DHT22;8853;52.552;13.356;2022-07-29T14:08:02;31.10;26.60
17473;DHT22;8853;52.552;13.356;2022-07-29T14:10:31;31.10;26.60
17473;DHT22;8853;52.552;13.356;2022-07-29T14:12:59;31.10;26.60
17473;DHT22;8853;52.552;13.356;2022-07-29T14:15:28;31.10;26.60
17473;DHT22;8853;52.552;13.356;2022-07-29T14:17:57;31.10;26.60
17473;DHT22;8853;52.552;13.356;2022-07-29T14:20:25;31.20;26.50
17473;DHT22;8853;52.552;13.356;2022-07-29T14:22:55;31.10;26.60
17473;DHT22;8853;52.552;13.356;2022-07-29T14:25:23;31.10;26.60
17473;DHT22;8853;52.552;13.356;2022-07-29T14:27:52;31.20;26.60
17473;DHT22;8853;52.552;13.356;2022-07-29T14:30:21;31.10;26.60
17473;DHT22;8853;52.552;13.356;2022-07-29T14:32:50;31.10;26.50
17473;DHT22;8853;52.552;13.356;2022-07-29T14:35:18;31.20;26.50
17473;DHT22;8853;52.552;13.356;2022-07-29T14:37:47;31.20;26.50
17473;DHT22;8853;52.552;13.356;2022-07-29T14:40:16;31.20;26.50
17473;DHT22;8853;52.552;13.356;2022-07-29T14:42:45;31.20;26.60
17473;DHT22;8853;52.552;13.356;2022-07-29T14:45:14;31.10;26.50
17473;DHT22;8853;52.552;13.356;2022-07-29T14:47:42;31.20;26.50
17473;DHT22;8853;52.552;13.356;2022-07-29T14:50:11;31.20;26.50
17473;DHT22;8853;52.552;13.356;2022-07-29T14:52:40;31.20;26.50
17473;DHT22;8853;52.552;13.356;2022-07-29T14:55:09;31.20;26.50
17473;DHT22;8853;52.552;13.356;2022-07-29T14:57:38;31.20;26.50
17473;DHT22;8853;52.552;13.356;2022-07-29T15:00:07;31.20;26.50
17473;DHT22;8853;52.552;13.356;2022-07-29T15:02:36;31.20;26.50
17473;DHT22;8853;52.552;13.356;2022-07-29T15:05:05;31.20;26.50
17473;DHT22;8853;52.552;13.356;2022-07-29T15:07:34;31.20;26.50
17473;DHT22;8853;52.552;13.356;2022-07-29T15:10:02;31.20;26.50
17473;DHT22;8853;52.552;13.356;2022-07-29T15:12:31;31.20;26.50
17473;DHT22;8853;52.552;13.356;2022-07-29T15:15:00;31.30;26.40
17473;DHT22;8853;52.552;13.356;2022-07-29T15:17:28;31.20;26.40
17473;DHT22;8853;52.552;13.356;2022-07-29T15:19:57;31.30;26.40
17473;DHT22;8853;52.552;13.356;2022-07-29T15:22:25;31.30;26.40
17473;DHT22;8853;52.552;13.356;2022-07-29T15:24:54;31.30;26.40
17473;DHT22;8853;52.552;13.356;2022-07-29T15:27:23;31.30;26.40
17473;DHT22;8853;52.552;13.356;2022-07-29T15:29:52;31.30;26.40
17473;DHT22;8853;52.552;13.356;2022-07-29T15:32:21;31.30;26.40
17473;DHT22;8853;52.552;13.356;2022-07-29T15:34:49;31.30;26.30
17473;DHT22;8853;52.552;13.356;2022-07-29T15:37:19;31.30;26.40
17473;DHT22;8853;52.552;13.356;2022-07-29T15:39:47;31.30;26.30
17473;DHT22;8853;52.552;13.356;2022-07-29T15:42:16;31.30;26.30
17473;DHT22;8853;52.552;13.356;2022-07-29T15:44:44;31.30;26.30
17473;DHT22;8853;52.552;13.356;2022-07-29T15:47:13;31.30;26.30
17473;DHT22;8853;52.552;13.356;2022-07-29T15:49:42;31.30;26.40
17473;DHT22;8853;52.552;13.356;2022-07-29T15:52:10;31.30;26.30
17473;DHT22;8853;52.552;13.356;2022-07-29T15:54:39;31.30;26.30
17473;DHT22;8853;52.552;13.356;2022-07-29T15:57:08;31.30;26.40
17473;DHT22;8853;52.552;13.356;2022-07-29T15:59:36;31.30;26.40
17473;DHT22;8853;52.552;13.356;2022-07-29T16:02:06;31.30;26.40
17473;DHT22;8853;52.552;13.356;2022-07-29T16:04:34;31.30;26.40
17473;DHT22;8853;52.552;13.356;2022-07-29T16:07:03;31.30;26.40
17473;DHT22;8853;52.552;13.356;2022-07-29T16:09:32;31.30;26.40
17473;DHT22;8853;52.552;13.356;2022-07-29T16:12:00;31.30;26.30
17473;DHT22;8853;52.552;13.356;2022-07-29T16:14:30;31.40;26.40
17473;DHT22;8853;52.552;13.356;2022-07-29T16:16:58;31.30;26.40
17473;DHT22;8853;52.552;13.356;2022-07-29T16:19:27;31.40;26.30
17473;DHT22;8853;52.552;13.356;2022-07-29T16:21:56;31.30;26.30
17473;DHT22;8853;52.552;13.356;2022-07-29T16:24:24;31.40;26.30
17473;DHT22;8853;52.552;13.356;2022-07-29T16:26:53;31.30;26.30
17473;DHT22;8853;52.552;13.356;2022-07-29T16:29:22;31.40;26.30